Aviation Digital Data Service (ADDS)

Output produced by METARs form (2013 UTC 18 July 2018)
found at http://www.aviationweather.gov/adds/metars/
 
LETO 182000Z 26006KT CAVOK 29/07 Q1015 NOSIG
TAF LETO 181700Z 1818/1918 23011KT CAVOK TX33/1915Z TN17/1905Z 
     PROB30 
     TEMPO 1818/1819 23015G25KT 
     BECMG 1822/1824 VRB05KT 
     BECMG 1909/1911 24011KT 
     PROB30 
     TEMPO 1912/1918 24015G25KT
       
LEZG 182000Z 35003KT 320V040 CAVOK 25/15 Q1015
TAF LEZG 181700Z 1818/1918 04008KT 9999 FEW050 TX37/1914Z TN21/1905Z 
     TEMPO 1818/1906 31012KT 
     PROB30 
     TEMPO 1818/1819 31018G35KT FEW050CB 
     BECMG 1821/1823 30005KT 
     BECMG 1910/1912 16008KT
       
LERT 182000Z 28004KT 260V320 CAVOK 21/18 Q1014 NOSIG
TAF LERT 181700Z 1818/1903 27010KT CAVOK 
     BECMG 1821/1824 VRB03KT 
     PROB30 
     TEMPO 1902/1903 4000 BR
       
LELC 182000Z 07005KT 020V100 9999 FEW012 25/22 Q1014 NOSIG
TAF LELC 181700Z 1818/1918 09010KT CAVOK TX31/1912Z TN21/1905Z 
     BECMG 1818/1820 VRB02KT 
     PROB30 
     TEMPO 1903/1906 4000 BR 
     BECMG 1908/1910 14010KT
       
LEAB 182000Z 18008KT 160V220 CAVOK 27/13 Q1016 NOSIG
TAF LEAB 181700Z 1818/1903 16010KT CAVOK 
     PROB30 
     TEMPO 1818/1821 16015G25KT
       
LEBZ 181900Z 30010KT CAVOK 29/12 Q1014
TAF LEBZ 181700Z 1818/1918 27009KT CAVOK TX31/1916Z TN15/1905Z 
     PROB30 
     TEMPO 1906/1908 BKN010
       
LEMO 182000Z 24008KT 210V280 CAVOK 26/12 Q1014 NOSIG
TAF LEMO 181700Z 1818/1903 26008KT CAVOK
       
LESA 182000Z 24007KT CAVOK 22/05 Q1016
TAF AMD LESA 181846Z 1818/1918 24012KT 9999 FEW040 TX30/1915Z TN12/1905Z 
     PROB30 
     TEMPO 1818/1819 24015G25KT 
     PROB30 
     TEMPO 1913/1918 FEW040TCU
       
GCLP 182000Z 01024KT 9999 BKN023 22/18 Q1016 NOSIG
TAF GCLP 181400Z 1815/1915 02026KT 9999 FEW025 TX27/1914Z TN21/1905Z 
     TEMPO 1815/1821 01026G36KT 
     PROB40 
     TEMPO 1821/1907 36022G32KT
       
LIED 181955Z 14006KT CAVOK 25/24 Q1013 RMK SKC VIS MIN 9999 WIND THR35 15008KT WIND THR17 /////KT BLU
TAF LIED 181400Z 1815/1824 13013KT CAVOK 
     BECMG 1819/1821 VRB03KT
       
LIPR 181945Z 12001KT CAVOK 27/23 Q1012 RMK SKC VIS MIN 9999 WIND THR31 00000KT BLU
TAF LIPR 181700Z 1818/1903 12008KT CAVOK